地図

経路データ

SID SEASON NUMBER BASIN SUBBASIN NAME ISO_TIME NATURE LAT LON WMO_WIND WMO_PRES WMO_AGENCY TRACK_TYPE DIST2LAND LANDFALL IFLAG USA_AGENCY USA_ATCF_ID USA_LAT USA_LON USA_RECORD USA_STATUS USA_WIND USA_PRES USA_SSHS USA_R34_NE USA_R34_SE USA_R34_SW USA_R34_NW USA_R50_NE USA_R50_SE USA_R50_SW USA_R50_NW USA_R64_NE USA_R64_SE USA_R64_SW USA_R64_NW USA_POCI USA_ROCI USA_RMW USA_EYE TOKYO_LAT TOKYO_LON TOKYO_GRADE TOKYO_WIND TOKYO_PRES TOKYO_R50_DIR TOKYO_R50_LONG TOKYO_R50_SHORT TOKYO_R30_DIR TOKYO_R30_LONG TOKYO_R30_SHORT TOKYO_LAND CMA_LAT CMA_LON CMA_CAT CMA_WIND CMA_PRES HKO_LAT HKO_LON HKO_CAT HKO_WIND HKO_PRES NEWDELHI_LAT NEWDELHI_LON NEWDELHI_GRADE NEWDELHI_WIND NEWDELHI_PRES NEWDELHI_CI NEWDELHI_DP NEWDELHI_POCI REUNION_LAT REUNION_LON REUNION_TYPE REUNION_WIND REUNION_PRES REUNION_TNUM REUNION_CI REUNION_RMW REUNION_R34_NE REUNION_R34_SE REUNION_R34_SW REUNION_R34_NW REUNION_R50_NE REUNION_R50_SE REUNION_R50_SW REUNION_R50_NW REUNION_R64_NE REUNION_R64_SE REUNION_R64_SW REUNION_R64_NW BOM_LAT BOM_LON BOM_TYPE BOM_WIND BOM_PRES BOM_TNUM BOM_CI BOM_RMW BOM_R34_NE BOM_R34_SE BOM_R34_SW BOM_R34_NW BOM_R50_NE BOM_R50_SE BOM_R50_SW BOM_R50_NW BOM_R64_NE BOM_R64_SE BOM_R64_SW BOM_R64_NW BOM_ROCI BOM_POCI BOM_EYE BOM_POS_METHOD BOM_PRES_METHOD NADI_LAT NADI_LON NADI_CAT NADI_WIND NADI_PRES WELLINGTON_LAT WELLINGTON_LON WELLINGTON_WIND WELLINGTON_PRES DS824_LAT DS824_LON DS824_STAGE DS824_WIND DS824_PRES TD9636_LAT TD9636_LON TD9636_STAGE TD9636_WIND TD9636_PRES TD9635_LAT TD9635_LON TD9635_WIND TD9635_PRES TD9635_ROCI NEUMANN_LAT NEUMANN_LON NEUMANN_CLASS NEUMANN_WIND NEUMANN_PRES MLC_LAT MLC_LON MLC_CLASS MLC_WIND MLC_PRES USA_GUST BOM_GUST BOM_GUST_PER REUNION_GUST REUNION_GUST_PER USA_SEAHGT USA_SEARAD_NE USA_SEARAD_SE USA_SEARAD_SW USA_SEARAD_NW STORM_SPEED STORM_DIR
1859272N15322 1859 21 NA NA NOT_NAMED 1859-09-28 12:00:00 TS 14.9000 -38.3000 main 1854 1852 _____________O -1 14.9000 -38.3000 TD 30 3 317
1859272N15322 1859 21 NA NA NOT_NAMED 1859-09-28 15:00:00 TS 15.0000 -38.4000 main 1852 1851 _____________P -1 15.0000 -38.4000 TD 30 3 316
1859272N15322 1859 21 NA NA NOT_NAMED 1859-09-28 18:00:00 TS 15.1000 -38.5000 main 1851 1843 _____________O -1 15.1000 -38.5000 TD 30 3 316
1859272N15322 1859 21 NA NA NOT_NAMED 1859-09-28 21:00:00 TS 15.2000 -38.6000 main 1850 1849 _____________P -1 15.2000 -38.6000 TD 30 3 316
1859272N15322 1859 21 NA NA NOT_NAMED 1859-09-29 00:00:00 TS 15.3000 -38.7000 main 1849 1848 _____________O -1 15.3000 -38.7000 TD 30 3 315
1859272N15322 1859 21 NA NA NOT_NAMED 1859-09-29 03:00:00 TS 15.4000 -38.8075 main 1848 1840 _____________P -1 15.4000 -38.8075 TD 30 3 316
1859272N15322 1859 21 NA NA NOT_NAMED 1859-09-29 06:00:00 TS 15.5000 -38.9000 main 1847 1847 _____________O -1 15.5000 -38.9000 TD 30 2 324
1859272N15322 1859 21 NA NA NOT_NAMED 1859-09-29 09:00:00 TS 15.6000 -38.9575 main 1847 1847 _____________P -1 15.6000 -38.9575 TD 32 2 333
1859272N15322 1859 21 NA NA NOT_NAMED 1859-09-29 12:00:00 TS 15.7000 -39.0000 main 1854 1854 _____________O -1 15.7000 -39.0000 TS 35 2 335
1859272N15322 1859 21 NA NA NOT_NAMED 1859-09-29 15:00:00 TS 15.8000 -39.0500 main 1862 1854 _____________P -1 15.8000 -39.0500 TS 35 2 333
1859272N15322 1859 21 NA NA NOT_NAMED 1859-09-29 18:00:00 TS 15.9000 -39.1000 main 1862 1862 _____________O -1 15.9000 -39.1000 TS 35 2 333
1859272N15322 1859 21 NA NA NOT_NAMED 1859-09-29 21:00:00 TS 16.0000 -39.1500 main 1869 1861 _____________P -1 16.0000 -39.1500 TS 35 2 333
1859272N15322 1859 21 NA NA NOT_NAMED 1859-09-30 00:00:00 TS 16.1000 -39.2000 main 1869 1869 _____________O -1 16.1000 -39.2000 TS 35 2 333
1859272N15322 1859 21 NA NA NOT_NAMED 1859-09-30 03:00:00 TS 16.2000 -39.2500 main 1877 1869 _____________P -1 16.2000 -39.2500 TS 37 2 333
1859272N15322 1859 21 NA NA NOT_NAMED 1859-09-30 06:00:00 TS 16.3000 -39.3000 main 1877 1877 _____________O -1 16.3000 -39.3000 TS 40 2 333
1859272N15322 1859 21 NA NA NOT_NAMED 1859-09-30 09:00:00 TS 16.4000 -39.3500 main 1885 1877 _____________P -1 16.4000 -39.3500 TS 40 2 333
1859272N15322 1859 21 NA NA NOT_NAMED 1859-09-30 12:00:00 TS 16.5000 -39.4000 main 1885 1885 _____________O -1 16.5000 -39.4000 TS 40 2 333
1859272N15322 1859 21 NA NA NOT_NAMED 1859-09-30 15:00:00 TS 16.6000 -39.4500 main 1886 1886 _____________P -1 16.6000 -39.4500 TS 40 2 333
1859272N15322 1859 21 NA NA NOT_NAMED 1859-09-30 18:00:00 TS 16.7000 -39.5000 main 1894 1894 _____________O -1 16.7000 -39.5000 TS 40 2 333
1859272N15322 1859 21 NA NA NOT_NAMED 1859-09-30 21:00:00 TS 16.8000 -39.5500 main 1902 1894 _____________P -1 16.8000 -39.5500 TS 42 2 333
1859272N15322 1859 21 NA NA NOT_NAMED 1859-10-01 00:00:00 TS 16.9000 -39.6000 main 1903 1903 _____________O -1 16.9000 -39.6000 TS 45 2 333
1859272N15322 1859 21 NA NA NOT_NAMED 1859-10-01 03:00:00 TS 17.0000 -39.6500 main 1903 1903 _____________P -1 17.0000 -39.6500 TS 45 2 333
1859272N15322 1859 21 NA NA NOT_NAMED 1859-10-01 06:00:00 TS 17.1000 -39.7000 main 1912 1912 _____________O -1 17.1000 -39.7000 TS 45 2 333
1859272N15322 1859 21 NA NA NOT_NAMED 1859-10-01 09:00:00 TS 17.1925 -39.7500 main 1913 1913 _____________P -1 17.1925 -39.7500 TS 45 2 333
1859272N15322 1859 21 NA NA NOT_NAMED 1859-10-01 12:00:00 TS 17.3000 -39.8000 main 1921 1921 _____________O -1 17.3000 -39.8000 TS 45 3 340
1859272N15322 1859 21 NA NA NOT_NAMED 1859-10-01 15:00:00 TS 17.4500 -39.8500 main 1938 1929 _____________P -1 17.4500 -39.8500 TS 45 3 343
1859272N15322 1859 21 NA NA NOT_NAMED 1859-10-01 18:00:00 TS 17.6000 -39.9000 main 1939 1939 _____________O -1 17.6000 -39.9000 TS 45 3 345
1859272N15322 1859 21 NA NA NOT_NAMED 1859-10-01 21:00:00 TS 17.7225 -39.9350 main 1947 1947 _____________P -1 17.7225 -39.9350 TS 45 2 333
1859272N15322 1859 21 NA NA NOT_NAMED 1859-10-02 00:00:00 TS 17.8000 -40.0000 main 1949 1942 _____________O -1 17.8000 -40.0000 TS 45 2 295
1859272N15322 1859 21 NA NA NOT_NAMED 1859-10-02 03:00:00 TS 17.8150 -40.1425 main 1942 1929 _____________P -1 17.8150 -40.1425 TS 45 3 270
1859272N15322 1859 21 NA NA NOT_NAMED 1859-10-02 06:00:00 TS 17.8000 -40.3000 main 1929 1922 _____________O -1 17.8000 -40.3000 TS 45 3 268
1859272N15322 1859 21 NA NA NOT_NAMED 1859-10-02 09:00:00 TS 17.8075 -40.4075 main 1922 1915 _____________P -1 17.8075 -40.4075 TS 45 2 270
1859272N15322 1859 21 NA NA NOT_NAMED 1859-10-02 12:00:00 TS 17.8000 -40.5000 main 1915 1908 _____________O -1 17.8000 -40.5000 TS 45 2 252
1859272N15322 1859 21 NA NA NOT_NAMED 1859-10-02 15:00:00 TS 17.7500 -40.6000 main 1908 1893 _____________P -1 17.7500 -40.6000 TS 42 2 242
1859272N15322 1859 21 NA NA NOT_NAMED 1859-10-02 18:00:00 TS 17.7000 -40.7000 main 1893 1886 _____________O -1 17.7000 -40.7000 TS 40 2 255
1859272N15322 1859 21 NA NA NOT_NAMED 1859-10-02 21:00:00 TS 17.7000 -40.8000 main 1886 1880 _____________P -1 17.7000 -40.8000 TS 40 2 270
1859272N15322 1859 21 NA NA NOT_NAMED 1859-10-03 00:00:00 TS 17.7000 -40.9000 main 1880 1873 _____________O -1 17.7000 -40.9000 TS 40 2 255
1859272N15322 1859 21 NA NA NOT_NAMED 1859-10-03 03:00:00 TS 17.6500 -41.0000 main 1873 1858 _____________P -1 17.6500 -41.0000 TS 40 2 242
1859272N15322 1859 21 NA NA NOT_NAMED 1859-10-03 06:00:00 TS 17.6000 -41.1000 main 1858 1851 _____________O -1 17.6000 -41.1000 TS 40 2 255
1859272N15322 1859 21 NA NA NOT_NAMED 1859-10-03 09:00:00 TS 17.6000 -41.2000 main 1851 1845 _____________P -1 17.6000 -41.2000 TS 40 2 270
1859272N15322 1859 21 NA NA NOT_NAMED 1859-10-03 12:00:00 TS 17.6000 -41.3000 main 1845 1839 _____________O -1 17.6000 -41.3000 TS 40 2 255
1859272N15322 1859 21 NA NA NOT_NAMED 1859-10-03 15:00:00 TS 17.5500 -41.4000 main 1839 1823 _____________P -1 17.5500 -41.4000 TS 40 2 242
1859272N15322 1859 21 NA NA NOT_NAMED 1859-10-03 18:00:00 TS 17.5000 -41.5000 main 1823 1817 _____________O -1 17.5000 -41.5000 TS 40 2 255
1859272N15322 1859 21 NA NA NOT_NAMED 1859-10-03 21:00:00 TS 17.5000 -41.6000 main 1817 1811 _____________P -1 17.5000 -41.6000 TS 40 2 270
1859272N15322 1859 21 NA NA NOT_NAMED 1859-10-04 00:00:00 TS 17.5000 -41.7000 main 1811 1804 _____________O -1 17.5000 -41.7000 TS 40 2 255
1859272N15322 1859 21 NA NA NOT_NAMED 1859-10-04 03:00:00 TS 17.4500 -41.8000 main 1804 1789 _____________P -1 17.4500 -41.8000 TS 40 2 242
1859272N15322 1859 21 NA NA NOT_NAMED 1859-10-04 06:00:00 TS 17.4000 -41.9000 main 1789 1783 _____________O -1 17.4000 -41.9000 TS 40 2 255
1859272N15322 1859 21 NA NA NOT_NAMED 1859-10-04 09:00:00 TS 17.4000 -42.0000 main 1783 1777 _____________P -1 17.4000 -42.0000 TS 40 2 270
1859272N15322 1859 21 NA NA NOT_NAMED 1859-10-04 12:00:00 TS 17.4000 -42.1000 main 1777 1771 _____________O -1 17.4000 -42.1000 TS 40 2 255
1859272N15322 1859 21 NA NA NOT_NAMED 1859-10-04 15:00:00 TS 17.3500 -42.2000 main 1761 1755 _____________P -1 17.3500 -42.2000 TS 37 2 242
1859272N15322 1859 21 NA NA NOT_NAMED 1859-10-04 18:00:00 TS 17.3000 -42.3000 main 1755 1749 _____________O -1 17.3000 -42.3000 TS 35 2 255
1859272N15322 1859 21 NA NA NOT_NAMED 1859-10-04 21:00:00 TS 17.3000 -42.4000 main 1749 1743 _____________P -1 17.3000 -42.4000 TS 35 2 270
1859272N15322 1859 21 NA NA NOT_NAMED 1859-10-05 00:00:00 TS 17.3000 -42.5000 main 1743 1737 _____________O -1 17.3000 -42.5000 TS 35 2 255
1859272N15322 1859 21 NA NA NOT_NAMED 1859-10-05 03:00:00 TS 17.2500 -42.6000 main 1728 1722 _____________P -1 17.2500 -42.6000 TS 35 2 242
1859272N15322 1859 21 NA NA NOT_NAMED 1859-10-05 06:00:00 TS 17.2000 -42.7000 main 1722 1716 _____________O -1 17.2000 -42.7000 TS 35 2 255
1859272N15322 1859 21 NA NA NOT_NAMED 1859-10-05 09:00:00 TS 17.2000 -42.8000 main 1716 1709 _____________P -1 17.2000 -42.8000 TS 35 2 270
1859272N15322 1859 21 NA NA NOT_NAMED 1859-10-05 12:00:00 TS 17.2000 -42.9000 main 1709 1702 _____________O -1 17.2000 -42.9000 TS 35 2 255
1859272N15322 1859 21 NA NA NOT_NAMED 1859-10-05 15:00:00 TS 17.1500 -43.0000 main 1702 1687 _____________P -1 17.1500 -43.0000 TS 32 2 242
1859272N15322 1859 21 NA NA NOT_NAMED 1859-10-05 18:00:00 TS 17.1000 -43.1000 main 1687 1680 _____________O -1 17.1000 -43.1000 TD 30 2 255
1859272N15322 1859 21 NA NA NOT_NAMED 1859-10-05 21:00:00 TS 17.1000 -43.2000 main 1680 1674 _____________P -1 17.1000 -43.2000 TD 30 2 270
1859272N15322 1859 21 NA NA NOT_NAMED 1859-10-06 00:00:00 TS 17.1000 -43.3000 main 1674 1667 _____________O -1 17.1000 -43.3000 TD 30 2 255
1859272N15322 1859 21 NA NA NOT_NAMED 1859-10-06 03:00:00 TS 17.0500 -43.4000 main 1667 1652 _____________P -1 17.0500 -43.4000 TD 30 2 242
1859272N15322 1859 21 NA NA NOT_NAMED 1859-10-06 06:00:00 TS 17.0000 -43.5000 main 1652 1645 _____________O -1 17.0000 -43.5000 TD 30 2 255
1859272N15322 1859 21 NA NA NOT_NAMED 1859-10-06 09:00:00 TS 17.0000 -43.6000 main 1645 1639 _____________P -1 17.0000 -43.6000 TD 30 2 270
1859272N15322 1859 21 NA NA NOT_NAMED 1859-10-06 12:00:00 TS 17.0000 -43.7000 main 1639 1632 _____________O -1 17.0000 -43.7000 TD 30 2 255
1859272N15322 1859 21 NA NA NOT_NAMED 1859-10-06 15:00:00 TS 16.9500 -43.8000 main 1632 1617 _____________P -1 16.9500 -43.8000 TD 30 2 242
1859272N15322 1859 21 NA NA NOT_NAMED 1859-10-06 18:00:00 TS 16.9000 -43.9000 main 1617 1611 _____________O -1 16.9000 -43.9000 TD 30 2 255
1859272N15322 1859 21 NA NA NOT_NAMED 1859-10-06 21:00:00 TS 16.9000 -44.0000 main 1611 1604 _____________P -1 16.9000 -44.0000 TD 30 2 270
1859272N15322 1859 21 NA NA NOT_NAMED 1859-10-07 00:00:00 TS 16.9000 -44.1000 main 1604 1598 _____________O -1 16.9000 -44.1000 TD 30 2 255
1859272N15322 1859 21 NA NA NOT_NAMED 1859-10-07 03:00:00 TS 16.8500 -44.2000 main 1589 1583 _____________P -1 16.8500 -44.2000 TD 30 2 242
1859272N15322 1859 21 NA NA NOT_NAMED 1859-10-07 06:00:00 TS 16.8000 -44.3000 main 1583 1576 _____________O -1 16.8000 -44.3000 TD 30 2 252
1859272N15322 1859 21 NA NA NOT_NAMED 1859-10-07 09:00:00 TS 16.7875 -44.4000 main 1576 1570 _____________P -1 16.7875 -44.4000 TD 30 2 270
1859272N15322 1859 21 NA NA NOT_NAMED 1859-10-07 12:00:00 TS 16.8000 -44.5000 main 1570 _____________O -1 16.8000 -44.5000 TD 30 2 277

IBTrACS Databaseについて

本データベースは、米国NOAAが公開する1842年以降の世界の熱帯低気圧のベストトラックデータアーカイブInternational Best Track Archive for Climate Stewardship (IBTrACS)を、ウェブで閲覧しやすい形式に変換したものです。

最終更新日:2021-10-19